Kezdőlap
METAR-TAF:

METAR-TAF

Repülőterek :

Sukhothai, Thaiföld

földrajzi szélesség: 17-14-16N, földrajzi hosszúság: 099-49-05E, magasság: 55 m

Jelenlegi meteorológiai megfigyelések

A jelentés 2 órával és 27 perccel ezelõtt készült, 10:00 UTC
Különbözõ irányokból fújó szél 2 kt
Hőmérséklet 32°C
Páratartalom 41%
Légköri nyomás 1011 hPa
Látótávolság: 8000 m

METAR: VTPO 151000Z VRB02KT 8000 NSC 32/17 Q1011 NOSIG

Idő: 19:27 (12:27 UTC)

Előrejelzés

A jelentés 1 órával és 27 perccel ezelõtt készült, 11:00 UTC
Az előrejelzés 15-én 12 óra UTC és 16-én 12 óra UTC között érvényes
Észak-északnyugati szél 5 kt
Látótávolság: 8000 m
15-én 21 óra UTC és 15-én 23 óra UTC között fokozatosan kialakuló
Látótávolság: 3000 m
Párásság
16-én 01 óra UTC és 16-én 03 óra UTC között fokozatosan kialakuló
Látótávolság: 8000 m

TAF: VTPO 151100Z 1512/1612 33005KT 8000 NSC BECMG 1521/1523 3000 BR BECMG 1601/1603 8000 NSW

Meteorológiai megfigyelések és előrejelzések több, mint 4000 repülőtéren (METAR és TAF jelentéseket).

A térképen piros és sárga pontok jelzik az elérhető meteorológiai állomásokat.

Mozgassa az egeret a pont fölött, hogy megjelenjen az állomás neve.

Azután kattintson az időjárási megfigyelések és előrejelzések megtekintéséhez.

A térkép megváltoztatása: kattintson a fekete keresztel jelölt zöld gombra ráközelítéshez, a vonallal jelölt zöld gombra távolításhoz, vagy a zöld nyilakra a szomszédos térképek eléréséhez.


METAR-TAF: